This is the latest recevied weather packets stored in our database for station/object LROP. If no packets are shown the sender has not sent any weather packets the latest 10 day(s).
| Time | Temp. | Humidity | Pressure | Rain* | Wind** | Luminosity | Snow |
|---|---|---|---|---|---|---|---|
| 1777398482 | 15° C | 51% | 1016 hPa | - | - | - | - |
| 1777397581 | 15° C | 51% | 1016 hPa | - | - | - | - |
| 1777396756 | 17.22° C | 45% | 1016 hPa | - | - | - | - |
| 1777395782 | 17.22° C | 45% | 1016 hPa | - | - | - | - |
| 1777394883 | 18.89° C | 35% | 1016 hPa | - | - | - | - |
| 1777393982 | 18.89° C | 35% | 1016 hPa | - | - | - | - |
| 1777393082 | 18.89° C | 35% | 1016 hPa | - | - | - | - |
| 1777392182 | 18.89° C | 35% | 1016 hPa | - | - | - | - |
| 1777391282 | 20° C | 28% | 1016 hPa | - | - | - | - |
| 1777390382 | 20° C | 28% | 1016 hPa | - | - | - | - |
| 1777389482 | 20° C | 30% | 1016 hPa | - | - | - | - |
| 1777388582 | 20° C | 30% | 1016 hPa | - | - | - | - |
| 1777387682 | 20° C | 30% | 1016 hPa | - | - | - | - |
| 1777386782 | 20° C | 30% | 1016 hPa | - | - | - | - |
| 1777385882 | 21.11° C | 31% | 1016 hPa | - | - | - | - |
| 1777384982 | 21.11° C | 31% | 1016 hPa | - | - | - | - |
| 1777384082 | 18.89° C | 35% | 1016 hPa | - | - | - | - |
| 1777383184 | 20° C | 30% | 1016 hPa | - | - | - | - |
| 1777382293 | 20° C | 35% | 1017 hPa | - | - | - | - |
| 1777381382 | 20° C | 35% | 1017 hPa | - | - | - | - |
| 1777380482 | 21.11° C | 29% | 1017 hPa | - | - | - | - |
| 1777379582 | 21.11° C | 29% | 1017 hPa | - | - | - | - |
| 1777378682 | 21.11° C | 29% | 1017 hPa | - | - | - | - |
| 1777377782 | 21.11° C | 29% | 1017 hPa | - | - | - | - |
| 1777376956 | 20° C | 35% | 1017 hPa | - | - | - | - |
* Rain since midnight (hover to see other rain measurements)
** Current wind speed in m/s (hover to see current wind gust speed)